sensor_id;sensor_type;location;lat;lon;timestamp;temperature;humidity
52979;DHT22;63430;53.186;6.598;2023-11-21T00:01:41;9.80;99.90
52979;DHT22;63430;53.186;6.598;2023-11-21T00:03:44;9.20;99.90
52979;DHT22;63430;53.186;6.598;2023-11-21T00:05:46;9.20;99.90
52979;DHT22;63430;53.186;6.598;2023-11-21T00:07:50;9.20;99.90
52979;DHT22;63430;53.186;6.598;2023-11-21T00:09:53;9.20;99.90
52979;DHT22;63430;53.186;6.598;2023-11-21T00:12:01;9.20;99.90
52979;DHT22;63430;53.186;6.598;2023-11-21T00:14:05;9.20;99.90
52979;DHT22;63430;53.186;6.598;2023-11-21T00:16:08;9.20;99.90
52979;DHT22;63430;53.186;6.598;2023-11-21T00:18:11;9.30;99.90
52979;DHT22;63430;53.186;6.598;2023-11-21T00:20:13;9.50;99.90
52979;DHT22;63430;53.186;6.598;2023-11-21T00:22:16;9.30;99.90
52979;DHT22;63430;53.186;6.598;2023-11-21T00:24:20;9.20;99.90
52979;DHT22;63430;53.186;6.598;2023-11-21T00:26:22;9.30;99.90
52979;DHT22;63430;53.186;6.598;2023-11-21T00:28:38;9.30;99.90
52979;DHT22;63430;53.186;6.598;2023-11-21T00:30:41;9.30;99.90
52979;DHT22;63430;53.186;6.598;2023-11-21T00:32:43;9.30;99.90
52979;DHT22;63430;53.186;6.598;2023-11-21T00:34:46;9.30;99.90
52979;DHT22;63430;53.186;6.598;2023-11-21T00:36:48;9.30;99.90
52979;DHT22;63430;53.186;6.598;2023-11-21T00:38:52;9.30;99.90
52979;DHT22;63430;53.186;6.598;2023-11-21T00:40:55;9.30;99.90
52979;DHT22;63430;53.186;6.598;2023-11-21T00:42:58;9.50;99.90
52979;DHT22;63430;53.186;6.598;2023-11-21T00:45:05;9.30;99.90
52979;DHT22;63430;53.186;6.598;2023-11-21T00:47:08;9.30;99.90
52979;DHT22;63430;53.186;6.598;2023-11-21T00:49:11;9.30;99.90
52979;DHT22;63430;53.186;6.598;2023-11-21T00:51:14;9.30;99.90
52979;DHT22;63430;53.186;6.598;2023-11-21T00:53:18;9.40;99.90
52979;DHT22;63430;53.186;6.598;2023-11-21T00:55:20;9.80;99.90
52979;DHT22;63430;53.186;6.598;2023-11-21T00:57:23;9.30;99.90
52979;DHT22;63430;53.186;6.598;2023-11-21T00:59:26;8.80;99.90
52979;DHT22;63430;53.186;6.598;2023-11-21T01:01:31;9.30;99.90
52979;DHT22;63430;53.186;6.598;2023-11-21T01:03:34;9.30;99.90
52979;DHT22;63430;53.186;6.598;2023-11-21T01:05:37;9.30;99.90
52979;DHT22;63430;53.186;6.598;2023-11-21T01:07:40;9.30;99.90
52979;DHT22;63430;53.186;6.598;2023-11-21T01:09:43;9.30;99.90
52979;DHT22;63430;53.186;6.598;2023-11-21T01:11:46;9.30;99.90
52979;DHT22;63430;53.186;6.598;2023-11-21T01:13:49;9.30;99.90
52979;DHT22;63430;53.186;6.598;2023-11-21T01:15:52;9.30;99.90
52979;DHT22;63430;53.186;6.598;2023-11-21T01:17:57;9.30;99.90
52979;DHT22;63430;53.186;6.598;2023-11-21T01:20:00;9.40;99.90
52979;DHT22;63430;53.186;6.598;2023-11-21T01:22:03;9.30;99.90
52979;DHT22;63430;53.186;6.598;2023-11-21T01:24:07;9.30;99.90
52979;DHT22;63430;53.186;6.598;2023-11-21T01:26:11;9.30;99.90
52979;DHT22;63430;53.186;6.598;2023-11-21T01:28:14;9.40;99.90
52979;DHT22;63430;53.186;6.598;2023-11-21T01:30:16;9.60;99.90
52979;DHT22;63430;53.186;6.598;2023-11-21T01:32:20;9.40;99.90
52979;DHT22;63430;53.186;6.598;2023-11-21T01:34:26;9.40;99.90
52979;DHT22;63430;53.186;6.598;2023-11-21T01:36:30;9.30;99.90
52979;DHT22;63430;53.186;6.598;2023-11-21T01:38:34;9.30;99.90
52979;DHT22;63430;53.186;6.598;2023-11-21T01:40:37;9.30;99.90
52979;DHT22;63430;53.186;6.598;2023-11-21T01:42:40;9.40;99.90
52979;DHT22;63430;53.186;6.598;2023-11-21T01:44:42;9.40;99.90
52979;DHT22;63430;53.186;6.598;2023-11-21T01:46:45;9.30;99.90
52979;DHT22;63430;53.186;6.598;2023-11-21T01:48:50;10.10;99.90
52979;DHT22;63430;53.186;6.598;2023-11-21T01:50:56;9.40;99.90
52979;DHT22;63430;53.186;6.598;2023-11-21T01:52:59;9.40;99.90
52979;DHT22;63430;53.186;6.598;2023-11-21T01:55:03;9.40;99.90
52979;DHT22;63430;53.186;6.598;2023-11-21T01:57:07;9.40;99.90
52979;DHT22;63430;53.186;6.598;2023-11-21T01:59:11;9.60;99.90
52979;DHT22;63430;53.186;6.598;2023-11-21T02:01:14;9.40;99.90
52979;DHT22;63430;53.186;6.598;2023-11-21T02:03:17;9.40;99.90
52979;DHT22;63430;53.186;6.598;2023-11-21T02:05:20;9.40;99.90
52979;DHT22;63430;53.186;6.598;2023-11-21T02:07:26;9.50;99.90
52979;DHT22;63430;53.186;6.598;2023-11-21T02:09:29;9.50;99.90
52979;DHT22;63430;53.186;6.598;2023-11-21T02:11:33;9.50;99.90
52979;DHT22;63430;53.186;6.598;2023-11-21T02:13:37;9.40;99.90
52979;DHT22;63430;53.186;6.598;2023-11-21T02:15:40;9.50;99.90
52979;DHT22;63430;53.186;6.598;2023-11-21T02:17:43;9.90;99.90
52979;DHT22;63430;53.186;6.598;2023-11-21T02:19:46;9.50;99.90
52979;DHT22;63430;53.186;6.598;2023-11-21T02:21:52;9.40;99.90
52979;DHT22;63430;53.186;6.598;2023-11-21T02:23:57;9.40;99.90
52979;DHT22;63430;53.186;6.598;2023-11-21T02:26:02;9.40;99.90
52979;DHT22;63430;53.186;6.598;2023-11-21T02:28:08;9.50;99.90
52979;DHT22;63430;53.186;6.598;2023-11-21T02:30:12;9.50;99.90
52979;DHT22;63430;53.186;6.598;2023-11-21T02:32:16;9.50;99.90
52979;DHT22;63430;53.186;6.598;2023-11-21T02:34:22;9.50;99.90
52979;DHT22;63430;53.186;6.598;2023-11-21T02:36:25;9.50;99.90
52979;DHT22;63430;53.186;6.598;2023-11-21T02:38:28;9.50;99.90
52979;DHT22;63430;53.186;6.598;2023-11-21T02:40:34;9.50;99.90
52979;DHT22;63430;53.186;6.598;2023-11-21T02:42:37;9.50;99.90
52979;DHT22;63430;53.186;6.598;2023-11-21T02:44:39;9.90;99.90
52979;DHT22;63430;53.186;6.598;2023-11-21T02:46:42;9.50;99.90
52979;DHT22;63430;53.186;6.598;2023-11-21T02:48:46;9.40;99.90
52979;DHT22;63430;53.186;6.598;2023-11-21T02:50:48;9.50;99.90
52979;DHT22;63430;53.186;6.598;2023-11-21T02:52:51;9.50;99.90
52979;DHT22;63430;53.186;6.598;2023-11-21T02:54:55;9.50;99.90
52979;DHT22;63430;53.186;6.598;2023-11-21T02:57:01;9.40;99.90
52979;DHT22;63430;53.186;6.598;2023-11-21T02:59:04;9.40;99.90
52979;DHT22;63430;53.186;6.598;2023-11-21T03:01:07;9.40;99.90
52979;DHT22;63430;53.186;6.598;2023-11-21T03:03:10;9.50;99.90
52979;DHT22;63430;53.186;6.598;2023-11-21T03:05:13;9.40;99.90
52979;DHT22;63430;53.186;6.598;2023-11-21T03:07:15;9.40;99.90
52979;DHT22;63430;53.186;6.598;2023-11-21T03:09:19;9.40;99.90
52979;DHT22;63430;53.186;6.598;2023-11-21T03:11:21;9.40;99.90
52979;DHT22;63430;53.186;6.598;2023-11-21T03:13:27;9.40;99.90
52979;DHT22;63430;53.186;6.598;2023-11-21T03:15:29;9.40;99.90
52979;DHT22;63430;53.186;6.598;2023-11-21T03:17:33;9.40;99.90
52979;DHT22;63430;53.186;6.598;2023-11-21T03:19:41;9.30;99.90
52979;DHT22;63430;53.186;6.598;2023-11-21T03:21:44;9.70;99.90
52979;DHT22;63430;53.186;6.598;2023-11-21T03:23:46;9.40;99.90
52979;DHT22;63430;53.186;6.598;2023-11-21T03:25:49;9.80;99.90
52979;DHT22;63430;53.186;6.598;2023-11-21T03:27:51;9.40;99.90
52979;DHT22;63430;53.186;6.598;2023-11-21T03:29:57;9.30;99.90
52979;DHT22;63430;53.186;6.598;2023-11-21T03:32:00;9.30;99.90
52979;DHT22;63430;53.186;6.598;2023-11-21T03:34:03;9.40;99.90
52979;DHT22;63430;53.186;6.598;2023-11-21T03:36:07;9.30;99.90
52979;DHT22;63430;53.186;6.598;2023-11-21T03:38:10;9.30;99.90
52979;DHT22;63430;53.186;6.598;2023-11-21T03:40:13;9.30;99.90
52979;DHT22;63430;53.186;6.598;2023-11-21T03:42:16;9.30;99.90
52979;DHT22;63430;53.186;6.598;2023-11-21T03:44:19;9.30;99.90
52979;DHT22;63430;53.186;6.598;2023-11-21T03:46:24;9.30;99.90
52979;DHT22;63430;53.186;6.598;2023-11-21T03:48:26;9.30;99.90
52979;DHT22;63430;53.186;6.598;2023-11-21T03:50:29;9.30;99.90
52979;DHT22;63430;53.186;6.598;2023-11-21T03:52:32;9.30;99.90
52979;DHT22;63430;53.186;6.598;2023-11-21T03:54:35;9.80;99.90
52979;DHT22;63430;53.186;6.598;2023-11-21T03:56:38;9.30;99.90
52979;DHT22;63430;53.186;6.598;2023-11-21T03:58:41;9.30;99.90
52979;DHT22;63430;53.186;6.598;2023-11-21T04:00:44;9.20;99.90
52979;DHT22;63430;53.186;6.598;2023-11-21T04:02:49;9.30;99.90
52979;DHT22;63430;53.186;6.598;2023-11-21T04:04:54;9.30;99.90
52979;DHT22;63430;53.186;6.598;2023-11-21T04:06:56;9.20;99.90
52979;DHT22;63430;53.186;6.598;2023-11-21T04:08:59;9.30;99.90
52979;DHT22;63430;53.186;6.598;2023-11-21T04:11:01;9.30;99.90
52979;DHT22;63430;53.186;6.598;2023-11-21T04:13:04;9.20;99.90
52979;DHT22;63430;53.186;6.598;2023-11-21T04:15:08;9.20;99.90
52979;DHT22;63430;53.186;6.598;2023-11-21T04:17:11;9.20;99.90
52979;DHT22;63430;53.186;6.598;2023-11-21T04:19:16;9.20;99.90
52979;DHT22;63430;53.186;6.598;2023-11-21T04:21:19;9.20;99.90
52979;DHT22;63430;53.186;6.598;2023-11-21T04:23:22;9.20;99.90
52979;DHT22;63430;53.186;6.598;2023-11-21T04:25:24;9.20;99.90
52979;DHT22;63430;53.186;6.598;2023-11-21T04:27:27;9.20;99.90
52979;DHT22;63430;53.186;6.598;2023-11-21T04:29:29;9.20;99.90
52979;DHT22;63430;53.186;6.598;2023-11-21T04:31:33;9.20;99.90
52979;DHT22;63430;53.186;6.598;2023-11-21T04:33:35;9.20;99.90
52979;DHT22;63430;53.186;6.598;2023-11-21T04:35:41;9.20;99.90
52979;DHT22;63430;53.186;6.598;2023-11-21T04:37:43;9.20;99.90
52979;DHT22;63430;53.186;6.598;2023-11-21T04:39:46;9.20;99.90
52979;DHT22;63430;53.186;6.598;2023-11-21T04:41:49;9.20;99.90
52979;DHT22;63430;53.186;6.598;2023-11-21T04:43:52;9.20;99.90
52979;DHT22;63430;53.186;6.598;2023-11-21T04:45:55;9.20;99.90
52979;DHT22;63430;53.186;6.598;2023-11-21T04:47:57;9.20;99.90
52979;DHT22;63430;53.186;6.598;2023-11-21T04:50:00;9.20;99.90
52979;DHT22;63430;53.186;6.598;2023-11-21T04:52:05;9.60;99.90
52979;DHT22;63430;53.186;6.598;2023-11-21T04:54:08;9.20;99.90
52979;DHT22;63430;53.186;6.598;2023-11-21T04:56:11;9.20;99.90
52979;DHT22;63430;53.186;6.598;2023-11-21T04:58:14;9.20;99.90
52979;DHT22;63430;53.186;6.598;2023-11-21T05:00:17;9.20;99.90
52979;DHT22;63430;53.186;6.598;2023-11-21T05:02:20;9.20;99.90
52979;DHT22;63430;53.186;6.598;2023-11-21T05:04:36;9.20;99.90
52979;DHT22;63430;53.186;6.598;2023-11-21T05:06:39;9.50;99.90
52979;DHT22;63430;53.186;6.598;2023-11-21T05:08:44;9.20;99.90
52979;DHT22;63430;53.186;6.598;2023-11-21T05:10:46;9.20;99.90
52979;DHT22;63430;53.186;6.598;2023-11-21T05:12:50;9.20;99.90
52979;DHT22;63430;53.186;6.598;2023-11-21T05:14:53;9.40;99.90
52979;DHT22;63430;53.186;6.598;2023-11-21T05:16:55;9.70;99.90
52979;DHT22;63430;53.186;6.598;2023-11-21T05:18:58;9.20;99.90
52979;DHT22;63430;53.186;6.598;2023-11-21T05:21:03;9.10;99.90
52979;DHT22;63430;53.186;6.598;2023-11-21T05:23:05;9.20;99.90
52979;DHT22;63430;53.186;6.598;2023-11-21T05:25:12;9.20;99.90
52979;DHT22;63430;53.186;6.598;2023-11-21T05:27:14;9.20;99.90
52979;DHT22;63430;53.186;6.598;2023-11-21T05:29:18;9.20;99.90
52979;DHT22;63430;53.186;6.598;2023-11-21T05:31:20;9.70;99.90
52979;DHT22;63430;53.186;6.598;2023-11-21T05:33:24;9.20;99.90
52979;DHT22;63430;53.186;6.598;2023-11-21T05:35:27;9.20;99.90
52979;DHT22;63430;53.186;6.598;2023-11-21T05:37:30;9.20;99.90
52979;DHT22;63430;53.186;6.598;2023-11-21T05:39:32;9.20;99.90
52979;DHT22;63430;53.186;6.598;2023-11-21T05:41:37;9.20;99.90
52979;DHT22;63430;53.186;6.598;2023-11-21T05:43:40;9.20;99.90
52979;DHT22;63430;53.186;6.598;2023-11-21T05:45:43;9.20;99.90
52979;DHT22;63430;53.186;6.598;2023-11-21T05:47:46;9.30;99.90
52979;DHT22;63430;53.186;6.598;2023-11-21T05:49:49;9.20;99.90
52979;DHT22;63430;53.186;6.598;2023-11-21T05:51:53;9.50;99.90
52979;DHT22;63430;53.186;6.598;2023-11-21T05:53:57;9.20;99.90
52979;DHT22;63430;53.186;6.598;2023-11-21T05:56:00;9.50;99.90
52979;DHT22;63430;53.186;6.598;2023-11-21T05:58:05;9.10;99.90
52979;DHT22;63430;53.186;6.598;2023-11-21T06:00:11;9.30;99.90
52979;DHT22;63430;53.186;6.598;2023-11-21T06:02:17;9.20;99.90
52979;DHT22;63430;53.186;6.598;2023-11-21T06:04:20;9.20;99.90
52979;DHT22;63430;53.186;6.598;2023-11-21T06:06:26;9.30;99.90
52979;DHT22;63430;53.186;6.598;2023-11-21T06:08:29;9.20;99.90
52979;DHT22;63430;53.186;6.598;2023-11-21T06:10:31;9.20;99.90
52979;DHT22;63430;53.186;6.598;2023-11-21T06:12:34;9.30;99.90
52979;DHT22;63430;53.186;6.598;2023-11-21T06:14:40;9.20;99.90
52979;DHT22;63430;53.186;6.598;2023-11-21T06:16:43;9.30;99.90
52979;DHT22;63430;53.186;6.598;2023-11-21T06:18:47;10.20;99.90
52979;DHT22;63430;53.186;6.598;2023-11-21T06:20:50;9.30;99.90
52979;DHT22;63430;53.186;6.598;2023-11-21T06:22:53;9.30;99.90
52979;DHT22;63430;53.186;6.598;2023-11-21T06:24:57;9.20;99.90
52979;DHT22;63430;53.186;6.598;2023-11-21T06:27:00;9.20;99.90
52979;DHT22;63430;53.186;6.598;2023-11-21T06:29:05;9.30;99.90
52979;DHT22;63430;53.186;6.598;2023-11-21T06:31:12;9.30;99.90
52979;DHT22;63430;53.186;6.598;2023-11-21T06:33:14;9.20;99.90
52979;DHT22;63430;53.186;6.598;2023-11-21T06:35:18;9.60;99.90
52979;DHT22;63430;53.186;6.598;2023-11-21T06:37:20;9.30;99.90
52979;DHT22;63430;53.186;6.598;2023-11-21T06:39:26;9.20;99.90
52979;DHT22;63430;53.186;6.598;2023-11-21T06:41:28;9.10;99.90
52979;DHT22;63430;53.186;6.598;2023-11-21T06:43:31;9.10;99.90
52979;DHT22;63430;53.186;6.598;2023-11-21T06:45:34;9.10;99.90
52979;DHT22;63430;53.186;6.598;2023-11-21T06:47:39;9.00;99.90
52979;DHT22;63430;53.186;6.598;2023-11-21T06:49:45;9.10;99.90
52979;DHT22;63430;53.186;6.598;2023-11-21T06:51:50;9.10;99.90
52979;DHT22;63430;53.186;6.598;2023-11-21T06:53:52;9.10;99.90
52979;DHT22;63430;53.186;6.598;2023-11-21T06:55:55;9.10;99.90
52979;DHT22;63430;53.186;6.598;2023-11-21T06:57:57;9.10;99.90
52979;DHT22;63430;53.186;6.598;2023-11-21T07:00:00;9.10;99.90
52979;DHT22;63430;53.186;6.598;2023-11-21T07:02:03;9.50;99.90
52979;DHT22;63430;53.186;6.598;2023-11-21T07:04:11;9.00;99.90
52979;DHT22;63430;53.186;6.598;2023-11-21T07:06:14;9.00;99.90
52979;DHT22;63430;53.186;6.598;2023-11-21T07:08:19;9.00;99.90
52979;DHT22;63430;53.186;6.598;2023-11-21T07:10:22;9.00;99.90
52979;DHT22;63430;53.186;6.598;2023-11-21T07:12:24;9.00;99.90
52979;DHT22;63430;53.186;6.598;2023-11-21T07:14:28;9.00;99.90
52979;DHT22;63430;53.186;6.598;2023-11-21T07:16:30;8.90;99.90
52979;DHT22;63430;53.186;6.598;2023-11-21T07:18:33;9.20;99.90
52979;DHT22;63430;53.186;6.598;2023-11-21T07:20:38;9.40;99.90
52979;DHT22;63430;53.186;6.598;2023-11-21T07:25:30;8.90;99.90
52979;DHT22;63430;53.186;6.598;2023-11-21T07:27:34;9.10;99.90
52979;DHT22;63430;53.186;6.598;2023-11-21T07:29:38;8.80;99.90
52979;DHT22;63430;53.186;6.598;2023-11-21T07:31:42;8.80;99.90
52979;DHT22;63430;53.186;6.598;2023-11-21T07:33:44;8.80;99.90
52979;DHT22;63430;53.186;6.598;2023-11-21T07:35:52;8.80;99.90
52979;DHT22;63430;53.186;6.598;2023-11-21T07:37:55;8.80;99.90
52979;DHT22;63430;53.186;6.598;2023-11-21T07:39:58;8.80;99.90
52979;DHT22;63430;53.186;6.598;2023-11-21T07:42:01;8.70;99.90
52979;DHT22;63430;53.186;6.598;2023-11-21T07:44:05;8.70;99.90
52979;DHT22;63430;53.186;6.598;2023-11-21T07:46:08;8.70;99.90
52979;DHT22;63430;53.186;6.598;2023-11-21T07:48:11;8.70;99.90
52979;DHT22;63430;53.186;6.598;2023-11-21T07:50:14;8.70;99.90
52979;DHT22;63430;53.186;6.598;2023-11-21T07:52:19;8.70;99.90
52979;DHT22;63430;53.186;6.598;2023-11-21T07:54:23;8.70;99.90
52979;DHT22;63430;53.186;6.598;2023-11-21T07:56:26;8.70;99.90
52979;DHT22;63430;53.186;6.598;2023-11-21T07:58:31;8.70;99.90
52979;DHT22;63430;53.186;6.598;2023-11-21T08:00:35;8.70;99.90
52979;DHT22;63430;53.186;6.598;2023-11-21T08:02:38;8.70;99.90
52979;DHT22;63430;53.186;6.598;2023-11-21T08:04:42;8.70;99.90
52979;DHT22;63430;53.186;6.598;2023-11-21T08:06:44;8.70;99.90
52979;DHT22;63430;53.186;6.598;2023-11-21T08:08:49;8.70;99.90
52979;DHT22;63430;53.186;6.598;2023-11-21T08:10:52;8.60;99.90
52979;DHT22;63430;53.186;6.598;2023-11-21T08:13:01;8.60;99.90
52979;DHT22;63430;53.186;6.598;2023-11-21T08:15:04;8.70;99.90
52979;DHT22;63430;53.186;6.598;2023-11-21T08:17:08;8.70;99.90
52979;DHT22;63430;53.186;6.598;2023-11-21T08:19:12;8.70;99.90
52979;DHT22;63430;53.186;6.598;2023-11-21T08:21:15;8.70;99.90
52979;DHT22;63430;53.186;6.598;2023-11-21T08:23:17;8.70;99.90
52979;DHT22;63430;53.186;6.598;2023-11-21T08:25:23;8.60;99.90
52979;DHT22;63430;53.186;6.598;2023-11-21T08:27:25;8.70;99.90
52979;DHT22;63430;53.186;6.598;2023-11-21T08:29:28;8.60;99.90
52979;DHT22;63430;53.186;6.598;2023-11-21T08:31:30;8.60;99.90
52979;DHT22;63430;53.186;6.598;2023-11-21T08:33:33;8.60;99.90
52979;DHT22;63430;53.186;6.598;2023-11-21T08:35:35;8.60;99.90
52979;DHT22;63430;53.186;6.598;2023-11-21T08:37:39;8.70;99.90
52979;DHT22;63430;53.186;6.598;2023-11-21T08:39:42;8.60;99.90
52979;DHT22;63430;53.186;6.598;2023-11-21T08:41:48;8.70;99.90
52979;DHT22;63430;53.186;6.598;2023-11-21T08:43:51;8.60;99.90
52979;DHT22;63430;53.186;6.598;2023-11-21T08:45:54;8.60;99.90
52979;DHT22;63430;53.186;6.598;2023-11-21T08:47:57;8.70;99.90
52979;DHT22;63430;53.186;6.598;2023-11-21T08:49:59;8.60;99.90
52979;DHT22;63430;53.186;6.598;2023-11-21T08:52:02;8.60;99.90
52979;DHT22;63430;53.186;6.598;2023-11-21T08:54:05;8.60;99.90
52979;DHT22;63430;53.186;6.598;2023-11-21T08:56:12;8.60;99.90
52979;DHT22;63430;53.186;6.598;2023-11-21T08:58:19;8.60;99.90
52979;DHT22;63430;53.186;6.598;2023-11-21T09:00:21;8.60;99.90
52979;DHT22;63430;53.186;6.598;2023-11-21T09:02:26;8.60;99.90
52979;DHT22;63430;53.186;6.598;2023-11-21T09:04:28;8.50;99.90
52979;DHT22;63430;53.186;6.598;2023-11-21T09:06:31;8.60;99.90
52979;DHT22;63430;53.186;6.598;2023-11-21T09:08:34;8.60;99.90
52979;DHT22;63430;53.186;6.598;2023-11-21T09:10:36;8.50;99.90
52979;DHT22;63430;53.186;6.598;2023-11-21T09:12:39;8.50;99.90
52979;DHT22;63430;53.186;6.598;2023-11-21T09:14:44;8.40;99.90
52979;DHT22;63430;53.186;6.598;2023-11-21T09:16:47;8.40;99.90
52979;DHT22;63430;53.186;6.598;2023-11-21T09:18:50;8.50;99.90
52979;DHT22;63430;53.186;6.598;2023-11-21T09:20:52;8.70;99.90
52979;DHT22;63430;53.186;6.598;2023-11-21T09:22:55;8.70;99.90
52979;DHT22;63430;53.186;6.598;2023-11-21T09:24:58;8.40;99.90
52979;DHT22;63430;53.186;6.598;2023-11-21T09:27:01;8.40;99.90
52979;DHT22;63430;53.186;6.598;2023-11-21T09:29:03;8.50;99.90
52979;DHT22;63430;53.186;6.598;2023-11-21T09:31:09;8.40;99.90
52979;DHT22;63430;53.186;6.598;2023-11-21T09:33:12;8.40;99.90
52979;DHT22;63430;53.186;6.598;2023-11-21T09:35:14;9.00;99.90
52979;DHT22;63430;53.186;6.598;2023-11-21T09:37:18;8.40;99.90
52979;DHT22;63430;53.186;6.598;2023-11-21T09:39:22;8.40;99.90
52979;DHT22;63430;53.186;6.598;2023-11-21T09:41:33;8.40;99.90
52979;DHT22;63430;53.186;6.598;2023-11-21T09:43:39;8.40;99.90
52979;DHT22;63430;53.186;6.598;2023-11-21T09:45:45;8.40;99.90
52979;DHT22;63430;53.186;6.598;2023-11-21T09:47:52;8.50;99.90
52979;DHT22;63430;53.186;6.598;2023-11-21T09:49:57;8.50;99.90
52979;DHT22;63430;53.186;6.598;2023-11-21T09:52:04;8.50;99.90
52979;DHT22;63430;53.186;6.598;2023-11-21T09:54:09;8.50;99.90
52979;DHT22;63430;53.186;6.598;2023-11-21T09:56:12;8.50;99.90
52979;DHT22;63430;53.186;6.598;2023-11-21T09:58:16;8.50;99.90
52979;DHT22;63430;53.186;6.598;2023-11-21T10:00:20;8.50;99.90
52979;DHT22;63430;53.186;6.598;2023-11-21T10:02:28;8.40;99.90
52979;DHT22;63430;53.186;6.598;2023-11-21T10:04:37;8.50;99.90
52979;DHT22;63430;53.186;6.598;2023-11-21T10:06:40;8.70;99.90
52979;DHT22;63430;53.186;6.598;2023-11-21T10:08:46;8.40;99.90
52979;DHT22;63430;53.186;6.598;2023-11-21T10:10:57;8.50;99.90
52979;DHT22;63430;53.186;6.598;2023-11-21T10:13:02;8.50;99.90
52979;DHT22;63430;53.186;6.598;2023-11-21T10:15:08;8.60;99.90
52979;DHT22;63430;53.186;6.598;2023-11-21T10:17:15;8.60;99.90
52979;DHT22;63430;53.186;6.598;2023-11-21T10:19:23;8.60;99.90
52979;DHT22;63430;53.186;6.598;2023-11-21T10:21:30;8.60;99.90
52979;DHT22;63430;53.186;6.598;2023-11-21T10:23:32;8.70;99.90
52979;DHT22;63430;53.186;6.598;2023-11-21T10:25:35;8.70;99.90
52979;DHT22;63430;53.186;6.598;2023-11-21T10:27:39;8.60;99.90
52979;DHT22;63430;53.186;6.598;2023-11-21T10:29:42;8.70;99.90
52979;DHT22;63430;53.186;6.598;2023-11-21T10:31:44;8.70;99.90
52979;DHT22;63430;53.186;6.598;2023-11-21T10:33:47;8.70;99.90
52979;DHT22;63430;53.186;6.598;2023-11-21T10:35:50;8.70;99.90
52979;DHT22;63430;53.186;6.598;2023-11-21T10:38:02;8.70;99.90
52979;DHT22;63430;53.186;6.598;2023-11-21T10:40:07;8.60;99.90
52979;DHT22;63430;53.186;6.598;2023-11-21T10:42:10;8.60;99.90
52979;DHT22;63430;53.186;6.598;2023-11-21T10:44:14;8.70;99.90
52979;DHT22;63430;53.186;6.598;2023-11-21T10:46:22;8.80;99.90
52979;DHT22;63430;53.186;6.598;2023-11-21T10:48:25;8.80;99.90
52979;DHT22;63430;53.186;6.598;2023-11-21T10:50:29;8.80;99.90
52979;DHT22;63430;53.186;6.598;2023-11-21T10:52:31;9.40;99.90
52979;DHT22;63430;53.186;6.598;2023-11-21T10:54:37;8.90;99.90
52979;DHT22;63430;53.186;6.598;2023-11-21T10:56:40;8.90;99.90
52979;DHT22;63430;53.186;6.598;2023-11-21T10:58:45;8.90;99.90
52979;DHT22;63430;53.186;6.598;2023-11-21T11:00:48;8.90;99.90
52979;DHT22;63430;53.186;6.598;2023-11-21T11:02:52;8.90;99.90
52979;DHT22;63430;53.186;6.598;2023-11-21T11:04:57;8.90;99.90
52979;DHT22;63430;53.186;6.598;2023-11-21T11:07:02;8.90;99.90
52979;DHT22;63430;53.186;6.598;2023-11-21T11:09:10;8.80;99.90
52979;DHT22;63430;53.186;6.598;2023-11-21T11:11:18;8.80;99.90
52979;DHT22;63430;53.186;6.598;2023-11-21T11:13:21;8.80;99.90
52979;DHT22;63430;53.186;6.598;2023-11-21T11:15:24;8.80;99.90
52979;DHT22;63430;53.186;6.598;2023-11-21T11:17:27;8.70;99.90
52979;DHT22;63430;53.186;6.598;2023-11-21T11:19:30;8.70;99.90
52979;DHT22;63430;53.186;6.598;2023-11-21T11:21:42;8.70;99.90
52979;DHT22;63430;53.186;6.598;2023-11-21T11:23:58;8.70;99.90
52979;DHT22;63430;53.186;6.598;2023-11-21T11:26:10;8.70;99.90
52979;DHT22;63430;53.186;6.598;2023-11-21T11:28:19;9.90;99.90
52979;DHT22;63430;53.186;6.598;2023-11-21T11:30:35;9.00;99.90
52979;DHT22;63430;53.186;6.598;2023-11-21T11:32:48;8.80;99.90
52979;DHT22;63430;53.186;6.598;2023-11-21T11:34:59;8.80;99.90
52979;DHT22;63430;53.186;6.598;2023-11-21T11:37:06;8.80;99.90
52979;DHT22;63430;53.186;6.598;2023-11-21T11:39:28;8.90;99.90
52979;DHT22;63430;53.186;6.598;2023-11-21T11:41:34;8.90;99.90
52979;DHT22;63430;53.186;6.598;2023-11-21T11:43:41;8.90;99.90
52979;DHT22;63430;53.186;6.598;2023-11-21T11:45:46;8.90;99.90
52979;DHT22;63430;53.186;6.598;2023-11-21T11:47:56;8.90;99.90
52979;DHT22;63430;53.186;6.598;2023-11-21T11:50:04;8.80;99.90
52979;DHT22;63430;53.186;6.598;2023-11-21T11:52:37;8.80;99.90
52979;DHT22;63430;53.186;6.598;2023-11-21T11:54:43;8.70;99.90
52979;DHT22;63430;53.186;6.598;2023-11-21T11:56:47;9.10;99.90
52979;DHT22;63430;53.186;6.598;2023-11-21T11:58:53;8.70;99.90
52979;DHT22;63430;53.186;6.598;2023-11-21T12:00:56;8.80;99.90
52979;DHT22;63430;53.186;6.598;2023-11-21T12:03:00;9.40;99.90
52979;DHT22;63430;53.186;6.598;2023-11-21T12:05:09;9.40;99.90
52979;DHT22;63430;53.186;6.598;2023-11-21T12:07:14;9.00;99.90
52979;DHT22;63430;53.186;6.598;2023-11-21T12:09:18;9.00;99.90
52979;DHT22;63430;53.186;6.598;2023-11-21T12:11:21;9.30;99.90
52979;DHT22;63430;53.186;6.598;2023-11-21T12:13:32;9.20;99.90
52979;DHT22;63430;53.186;6.598;2023-11-21T12:15:37;9.30;99.90
52979;DHT22;63430;53.186;6.598;2023-11-21T12:17:43;9.20;99.90
52979;DHT22;63430;53.186;6.598;2023-11-21T12:19:46;9.20;99.90
52979;DHT22;63430;53.186;6.598;2023-11-21T12:21:49;9.10;99.90
52979;DHT22;63430;53.186;6.598;2023-11-21T12:23:52;9.10;99.90
52979;DHT22;63430;53.186;6.598;2023-11-21T12:25:54;9.80;99.90
52979;DHT22;63430;53.186;6.598;2023-11-21T12:27:57;9.10;99.90
52979;DHT22;63430;53.186;6.598;2023-11-21T12:30:00;9.10;99.90
52979;DHT22;63430;53.186;6.598;2023-11-21T12:32:06;9.10;99.90
52979;DHT22;63430;53.186;6.598;2023-11-21T12:34:09;9.10;99.90
52979;DHT22;63430;53.186;6.598;2023-11-21T12:36:13;9.10;99.90
52979;DHT22;63430;53.186;6.598;2023-11-21T12:38:16;9.10;99.90
52979;DHT22;63430;53.186;6.598;2023-11-21T12:40:21;9.60;99.90
52979;DHT22;63430;53.186;6.598;2023-11-21T12:42:26;9.00;99.90
52979;DHT22;63430;53.186;6.598;2023-11-21T12:44:29;9.00;99.90
52979;DHT22;63430;53.186;6.598;2023-11-21T12:46:32;9.00;99.90
52979;DHT22;63430;53.186;6.598;2023-11-21T12:48:40;9.00;99.90
52979;DHT22;63430;53.186;6.598;2023-11-21T12:50:46;9.00;99.90
52979;DHT22;63430;53.186;6.598;2023-11-21T12:52:51;8.90;99.90
52979;DHT22;63430;53.186;6.598;2023-11-21T12:54:56;9.00;99.90
52979;DHT22;63430;53.186;6.598;2023-11-21T12:56:59;9.00;99.90
52979;DHT22;63430;53.186;6.598;2023-11-21T12:59:03;9.10;99.90
52979;DHT22;63430;53.186;6.598;2023-11-21T13:01:07;9.20;99.90
52979;DHT22;63430;53.186;6.598;2023-11-21T13:03:16;9.30;99.90
52979;DHT22;63430;53.186;6.598;2023-11-21T13:05:27;9.30;99.90
52979;DHT22;63430;53.186;6.598;2023-11-21T13:07:30;9.40;99.90
52979;DHT22;63430;53.186;6.598;2023-11-21T13:09:32;9.30;99.90
52979;DHT22;63430;53.186;6.598;2023-11-21T13:11:36;9.30;99.90
52979;DHT22;63430;53.186;6.598;2023-11-21T13:13:41;9.30;99.90
52979;DHT22;63430;53.186;6.598;2023-11-21T13:15:48;9.20;99.90
52979;DHT22;63430;53.186;6.598;2023-11-21T13:17:51;9.20;99.90
52979;DHT22;63430;53.186;6.598;2023-11-21T13:19:56;9.20;99.90